createdAt,value
2023-01-31T00:01:43.962Z,2.00
2023-01-31T00:06:51.191Z,1.88
2023-01-31T00:11:53.433Z,2.05
2023-01-31T00:16:55.394Z,1.90
2023-01-31T00:21:57.708Z,2.88
2023-01-31T00:26:59.719Z,2.35
2023-01-31T00:32:01.633Z,2.47
2023-01-31T00:37:03.427Z,2.75
2023-01-31T00:42:07.612Z,2.40
2023-01-31T00:47:09.285Z,2.10
2023-01-31T00:52:10.947Z,2.40
2023-01-31T00:57:12.681Z,1.63
2023-01-31T01:02:15.059Z,1.30
2023-01-31T01:07:16.841Z,0.98
2023-01-31T01:12:18.645Z,1.05
2023-01-31T01:17:20.697Z,0.88
2023-01-31T01:22:24.060Z,1.23
2023-01-31T01:27:27.327Z,1.38
2023-01-31T01:32:29.769Z,0.80
2023-01-31T01:37:31.656Z,1.50
2023-01-31T01:42:36.321Z,2.30
2023-01-31T01:48:06.907Z,1.48
2023-01-31T01:53:17.818Z,1.70
2023-01-31T01:58:24.435Z,2.28
2023-01-31T02:03:27.315Z,1.85
2023-01-31T02:08:32.252Z,2.13
2023-01-31T02:13:34.570Z,2.00
2023-01-31T02:18:36.332Z,1.90
2023-01-31T02:23:40.993Z,2.72
2023-01-31T02:28:55.020Z,2.95
2023-01-31T02:34:07.821Z,2.72
2023-01-31T02:39:24.614Z,2.47
2023-01-31T02:44:59.243Z,3.13
2023-01-31T02:50:19.468Z,2.60
2023-01-31T02:55:56.467Z,2.45
2023-01-31T03:01:04.164Z,1.50
2023-01-31T03:06:24.745Z,1.90
2023-01-31T03:11:47.857Z,2.15
2023-01-31T03:17:21.644Z,2.05
2023-01-31T03:22:31.677Z,1.85
2023-01-31T03:27:34.990Z,1.92
2023-01-31T03:32:51.520Z,1.67
2023-01-31T03:38:17.656Z,1.63
2023-01-31T03:43:27.179Z,2.00
2023-01-31T03:48:37.183Z,2.90
2023-01-31T03:58:53.815Z,1.77
2023-01-31T04:09:00.607Z,2.78
2023-01-31T04:14:02.364Z,1.90
2023-01-31T04:19:04.079Z,2.58
2023-01-31T04:24:06.115Z,2.05
2023-01-31T04:29:08.017Z,1.88
2023-01-31T04:34:10.295Z,1.85
2023-01-31T04:39:13.663Z,1.70
2023-01-31T04:44:16.692Z,2.78
2023-01-31T04:49:18.375Z,2.92
2023-01-31T04:54:20.350Z,2.13
2023-01-31T04:59:22.035Z,2.03
2023-01-31T05:04:23.784Z,2.50
2023-01-31T05:09:26.077Z,1.70
2023-01-31T05:14:28.058Z,1.90
2023-01-31T05:19:30.113Z,1.58
2023-01-31T05:24:33.683Z,2.00
2023-01-31T05:29:35.468Z,2.33
2023-01-31T05:34:37.416Z,2.45
2023-01-31T05:39:39.222Z,1.92
2023-01-31T05:44:40.930Z,1.98
2023-01-31T05:49:42.584Z,2.95
2023-01-31T05:54:44.258Z,2.00
2023-01-31T05:59:45.950Z,1.90
2023-01-31T06:04:47.725Z,2.33
2023-01-31T06:09:49.517Z,1.63
2023-01-31T06:15:16.172Z,2.25
2023-01-31T06:20:18.148Z,2.00
2023-01-31T06:25:20.103Z,2.42
2023-01-31T06:30:21.985Z,2.45
2023-01-31T06:35:23.660Z,2.00
2023-01-31T06:40:25.563Z,1.75
2023-01-31T06:45:27.353Z,2.38
2023-01-31T06:50:29.041Z,2.40
2023-01-31T06:55:30.805Z,3.17
2023-01-31T07:00:32.915Z,1.70
2023-01-31T07:05:34.711Z,1.63
2023-01-31T07:10:36.401Z,1.92
2023-01-31T07:15:38.129Z,2.47
2023-01-31T07:20:40.966Z,2.00
2023-01-31T07:25:42.712Z,1.58
2023-01-31T07:30:46.205Z,2.17
2023-01-31T07:35:48.044Z,2.22
2023-01-31T07:40:50.331Z,1.70
2023-01-31T07:45:52.294Z,2.15
2023-01-31T07:51:02.057Z,2.60
2023-01-31T07:56:14.258Z,2.20
2023-01-31T08:01:42.514Z,1.70
2023-01-31T08:06:46.305Z,2.15
2023-01-31T08:11:48.182Z,1.48
2023-01-31T08:16:49.900Z,2.42
2023-01-31T08:21:51.611Z,2.35
2023-01-31T08:26:53.638Z,1.98
2023-01-31T08:31:55.443Z,2.15
2023-01-31T08:36:57.325Z,2.20
2023-01-31T08:41:59.012Z,2.13
2023-01-31T08:47:02.327Z,1.80
2023-01-31T08:52:04.365Z,2.22
2023-01-31T08:57:06.128Z,1.52
2023-01-31T09:02:11.188Z,1.27
2023-01-31T09:07:12.851Z,1.75
2023-01-31T09:12:14.475Z,1.98
2023-01-31T09:17:16.168Z,1.80
2023-01-31T09:22:18.036Z,1.40
2023-01-31T09:27:19.722Z,2.17
2023-01-31T09:32:21.385Z,2.28
2023-01-31T09:37:23.106Z,1.45
2023-01-31T09:42:31.913Z,1.80
2023-01-31T09:47:38.095Z,1.83
2023-01-31T09:52:39.781Z,2.08
2023-01-31T09:57:56.878Z,2.22
2023-01-31T10:08:54.409Z,1.55
2023-01-31T10:14:05.113Z,1.93
2023-01-31T10:19:12.510Z,1.95
2023-01-31T10:24:46.314Z,1.60
2023-01-31T10:29:54.133Z,2.33
2023-01-31T10:35:21.913Z,1.83
2023-01-31T10:40:35.763Z,1.30
2023-01-31T10:45:38.567Z,1.60
2023-01-31T10:50:48.655Z,1.80
2023-01-31T10:56:13.479Z,1.73
2023-01-31T11:01:15.332Z,1.70
2023-01-31T11:06:17.630Z,1.48
2023-01-31T11:11:22.961Z,1.65
2023-01-31T11:16:28.229Z,1.67
2023-01-31T11:21:34.183Z,1.55
2023-01-31T11:26:39.084Z,2.20
2023-01-31T11:31:43.171Z,1.33
2023-01-31T11:36:46.535Z,1.77
2023-01-31T11:41:48.534Z,2.13
2023-01-31T11:46:54.512Z,2.08
2023-01-31T11:51:59.370Z,2.13
2023-01-31T11:57:02.049Z,1.77
2023-01-31T12:02:04.749Z,2.38
2023-01-31T12:07:22.407Z,1.80
2023-01-31T12:12:31.391Z,2.08
2023-01-31T12:17:42.896Z,1.98
2023-01-31T12:23:06.446Z,2.53
2023-01-31T12:28:37.793Z,2.17
2023-01-31T12:34:10.548Z,2.45
2023-01-31T12:39:44.274Z,2.28
2023-01-31T12:44:51.302Z,2.53
2023-01-31T12:50:17.393Z,3.35
2023-01-31T12:55:47.740Z,2.50
2023-01-31T13:00:56.595Z,2.17
2023-01-31T13:06:06.993Z,2.25
2023-01-31T13:11:13.856Z,2.22
2023-01-31T13:16:41.789Z,3.05
2023-01-31T13:21:49.028Z,2.60
2023-01-31T13:32:25.604Z,3.45
2023-01-31T13:37:30.475Z,3.10
2023-01-31T13:42:33.256Z,3.58
2023-01-31T13:47:48.018Z,2.80
2023-01-31T13:52:57.005Z,3.60
2023-01-31T13:58:06.061Z,3.33
2023-01-31T14:03:16.831Z,2.85
2023-01-31T14:08:38.964Z,3.45
2023-01-31T14:13:43.903Z,3.65
2023-01-31T14:18:46.760Z,3.17
2023-01-31T14:23:48.569Z,4.30
2023-01-31T14:28:50.800Z,3.50
2023-01-31T14:33:57.434Z,3.75
2023-01-31T14:39:53.700Z,3.47
2023-01-31T14:44:59.385Z,2.80
2023-01-31T14:57:46.009Z,2.77
2023-01-31T15:02:47.951Z,3.53
2023-01-31T15:08:01.923Z,3.25
2023-01-31T15:13:04.031Z,2.70
2023-01-31T15:18:22.102Z,3.30
2023-01-31T15:23:27.664Z,2.85
2023-01-31T15:28:34.810Z,3.65
2023-01-31T15:39:16.902Z,2.90
2023-01-31T15:44:24.002Z,3.20
2023-01-31T15:49:40.778Z,3.30
2023-01-31T15:55:00.059Z,3.63
2023-01-31T16:00:02.112Z,3.35
2023-01-31T16:05:09.687Z,3.80
2023-01-31T16:10:13.268Z,3.60
2023-01-31T16:15:21.884Z,4.13
2023-01-31T16:20:57.822Z,3.75
2023-01-31T16:26:08.625Z,3.28
2023-01-31T16:31:13.921Z,3.75
2023-01-31T16:36:20.679Z,3.10
2023-01-31T16:41:42.935Z,2.97
2023-01-31T16:46:46.506Z,3.83
2023-01-31T16:51:49.411Z,2.92
2023-01-31T16:57:03.007Z,3.55
2023-01-31T17:02:17.926Z,2.92
2023-01-31T17:07:27.316Z,3.42
2023-01-31T17:12:32.531Z,3.63
2023-01-31T17:17:37.318Z,3.88
2023-01-31T17:22:39.180Z,3.88
2023-01-31T17:27:41.146Z,4.03
2023-01-31T17:32:42.955Z,3.90
2023-01-31T17:37:45.339Z,3.13
2023-01-31T17:42:47.175Z,3.53
2023-01-31T17:47:49.062Z,3.47
2023-01-31T17:52:51.398Z,2.75
2023-01-31T17:57:53.235Z,2.50
2023-01-31T18:02:54.954Z,2.67
2023-01-31T18:07:56.646Z,2.83
2023-01-31T18:12:58.436Z,2.28
2023-01-31T18:18:00.824Z,1.95
2023-01-31T18:23:02.535Z,1.65
2023-01-31T18:28:04.408Z,1.67
2023-01-31T18:33:06.127Z,1.60
2023-01-31T18:38:08.689Z,2.00
2023-01-31T18:43:10.656Z,1.67
2023-01-31T18:48:12.440Z,1.88
2023-01-31T18:53:14.164Z,1.60
2023-01-31T18:58:16.531Z,1.60
2023-01-31T19:03:18.243Z,1.92
2023-01-31T19:08:19.972Z,1.55
2023-01-31T19:13:25.756Z,1.75
2023-01-31T19:18:27.562Z,1.85
2023-01-31T19:23:29.396Z,1.77
2023-01-31T19:28:31.684Z,1.73
2023-01-31T19:33:34.448Z,1.45
2023-01-31T19:38:36.139Z,1.40
2023-01-31T19:43:38.178Z,1.30
2023-01-31T19:48:39.929Z,1.40
2023-01-31T19:53:42.542Z,1.73
2023-01-31T19:58:44.569Z,1.60
2023-01-31T20:03:47.267Z,1.55
2023-01-31T20:08:54.954Z,1.60
2023-01-31T20:13:58.067Z,1.30
2023-01-31T20:19:06.345Z,1.25
2023-01-31T20:24:08.559Z,1.50
2023-01-31T20:29:12.303Z,1.70
2023-01-31T20:34:13.992Z,1.70
2023-01-31T20:39:15.615Z,1.50
2023-01-31T20:44:17.316Z,1.83
2023-01-31T20:49:21.313Z,1.63
2023-01-31T20:54:23.342Z,1.52
2023-01-31T20:59:25.099Z,1.40
2023-01-31T21:04:26.737Z,1.73
2023-01-31T21:09:28.957Z,1.90
2023-01-31T21:14:30.643Z,1.90
2023-01-31T21:19:32.275Z,2.30
2023-01-31T21:24:33.956Z,1.83
2023-01-31T21:29:35.608Z,2.45
2023-01-31T21:34:38.841Z,2.83
2023-01-31T21:39:42.265Z,3.00
2023-01-31T21:44:45.331Z,2.80
2023-01-31T21:49:47.177Z,2.50
2023-01-31T21:54:49.032Z,2.70
2023-01-31T21:59:50.844Z,2.47
2023-01-31T22:04:52.663Z,1.98
2023-01-31T22:09:54.471Z,2.50
2023-01-31T22:14:56.242Z,2.20
2023-01-31T22:19:57.897Z,2.80
2023-01-31T22:24:59.581Z,2.42
2023-01-31T22:30:15.224Z,2.70
2023-01-31T22:35:17.594Z,2.53
2023-01-31T22:40:19.696Z,3.03
2023-01-31T22:45:21.637Z,3.30
2023-01-31T22:50:23.568Z,2.90
2023-01-31T22:55:25.423Z,3.35
2023-01-31T23:00:27.102Z,3.53
2023-01-31T23:05:29.039Z,3.15
2023-01-31T23:10:30.664Z,3.45
2023-01-31T23:15:32.772Z,3.42
2023-01-31T23:20:34.509Z,3.50
2023-01-31T23:25:36.201Z,3.30
2023-01-31T23:30:38.098Z,3.35
2023-01-31T23:35:39.768Z,3.25
2023-01-31T23:40:41.663Z,3.20
2023-01-31T23:45:43.421Z,3.40
2023-01-31T23:50:45.102Z,3.50
2023-01-31T23:55:46.712Z,3.03
